createdAt,value
2024-03-26T00:00:28.415Z,193.67
2024-03-26T00:01:04.411Z,192.33
2024-03-26T00:01:41.219Z,190.67
2024-03-26T00:02:11.985Z,190.00
2024-03-26T00:02:43.121Z,190.00
2024-03-26T00:03:14.775Z,190.00
2024-03-26T00:03:45.436Z,190.00
2024-03-26T00:04:16.060Z,190.00
2024-03-26T00:04:46.702Z,190.33
2024-03-26T00:05:17.400Z,191.00
2024-03-26T00:05:51.685Z,191.33
2024-03-26T00:06:22.304Z,192.00
2024-03-26T00:06:55.038Z,192.33
2024-03-26T00:07:25.668Z,193.00
2024-03-26T00:07:56.414Z,193.00
2024-03-26T00:08:27.344Z,192.33
2024-03-26T00:08:58.418Z,192.00
2024-03-26T00:09:29.072Z,191.67
2024-03-26T00:09:59.696Z,190.67
2024-03-26T00:10:31.035Z,189.33
2024-03-26T00:11:02.773Z,188.33
2024-03-26T00:11:33.360Z,188.00
2024-03-26T00:12:04.169Z,188.00
2024-03-26T00:12:35.928Z,187.00
2024-03-26T00:13:06.541Z,186.33
2024-03-26T00:13:38.398Z,185.00
2024-03-26T00:14:09.010Z,182.33
2024-03-26T00:14:40.262Z,182.00
2024-03-26T00:15:12.252Z,182.00
2024-03-26T00:15:44.448Z,182.00
2024-03-26T00:16:15.084Z,182.00
2024-03-26T00:16:45.689Z,182.00
2024-03-26T00:17:16.338Z,181.33
2024-03-26T00:17:46.937Z,181.00
2024-03-26T00:18:20.503Z,181.00
2024-03-26T00:18:52.161Z,181.67
2024-03-26T00:19:22.854Z,182.00
2024-03-26T00:19:53.468Z,182.00
2024-03-26T00:20:24.056Z,182.00
2024-03-26T00:20:54.660Z,182.67
2024-03-26T00:21:25.271Z,183.00
2024-03-26T00:21:56.072Z,183.00
2024-03-26T00:22:27.765Z,183.00
2024-03-26T00:22:58.369Z,183.00
2024-03-26T00:23:29.079Z,183.00
2024-03-26T00:23:59.714Z,182.00
2024-03-26T00:24:30.366Z,182.00
2024-03-26T00:25:00.990Z,182.00
2024-03-26T00:25:32.029Z,182.00
2024-03-26T00:26:02.673Z,182.00
2024-03-26T00:26:34.685Z,182.33
2024-03-26T00:27:05.475Z,196.33
2024-03-26T00:27:36.061Z,210.00
2024-03-26T00:28:06.724Z,206.67
2024-03-26T00:28:40.164Z,203.67
2024-03-26T00:29:12.008Z,201.33
2024-03-26T00:29:42.650Z,200.33
2024-03-26T00:30:15.067Z,199.33
2024-03-26T00:30:45.680Z,199.00
2024-03-26T00:31:16.293Z,198.00
2024-03-26T00:31:46.955Z,198.00
2024-03-26T00:32:17.666Z,198.00
2024-03-26T00:32:48.254Z,198.00
2024-03-26T00:33:18.840Z,198.33
2024-03-26T00:33:49.537Z,200.33
2024-03-26T00:34:20.131Z,201.00
2024-03-26T00:34:50.724Z,201.00
2024-03-26T00:35:21.768Z,201.67
2024-03-26T00:35:52.374Z,202.00
2024-03-26T00:36:23.358Z,202.00
2024-03-26T00:36:53.945Z,202.67
2024-03-26T00:37:24.539Z,204.33
2024-03-26T00:37:55.121Z,207.00
2024-03-26T00:38:27.251Z,208.00
2024-03-26T00:38:59.687Z,207.33
2024-03-26T00:39:31.288Z,206.33
2024-03-26T00:40:02.137Z,206.00
2024-03-26T00:40:32.758Z,205.33
2024-03-26T00:41:03.428Z,204.67
2024-03-26T00:41:35.469Z,203.00
2024-03-26T00:42:07.681Z,199.33
2024-03-26T00:42:38.303Z,193.00
2024-03-26T00:43:09.363Z,182.33
2024-03-26T00:43:39.974Z,176.00
2024-03-26T00:44:10.582Z,174.33
2024-03-26T00:44:41.182Z,174.00
2024-03-26T00:45:13.022Z,174.00
2024-03-26T00:46:05.015Z,173.00
2024-03-26T00:46:35.667Z,174.67
2024-03-26T00:47:25.724Z,174.67
2024-03-26T00:47:56.894Z,174.00
2024-03-26T00:48:28.505Z,173.33
2024-03-26T00:48:59.079Z,173.00
2024-03-26T00:49:29.667Z,173.00
2024-03-26T00:50:00.255Z,174.00
2024-03-26T00:50:31.030Z,174.67
2024-03-26T00:51:02.110Z,175.00
2024-03-26T00:51:33.536Z,175.00
2024-03-26T00:52:04.354Z,176.00
2024-03-26T00:52:35.642Z,176.00
2024-03-26T00:53:06.248Z,176.33
2024-03-26T00:53:36.942Z,177.00
2024-03-26T00:54:10.316Z,177.00
2024-03-26T00:54:41.235Z,176.00
2024-03-26T00:55:12.317Z,171.67
2024-03-26T00:55:43.124Z,165.67
2024-03-26T00:56:13.721Z,162.33
2024-03-26T00:56:44.381Z,162.67
2024-03-26T00:57:14.998Z,164.33
2024-03-26T00:57:47.238Z,165.67
2024-03-26T00:58:17.886Z,166.67
2024-03-26T00:58:48.611Z,167.00
2024-03-26T00:59:20.514Z,167.00
2024-03-26T00:59:51.126Z,166.00
2024-03-26T01:00:21.802Z,165.67
2024-03-26T01:00:52.400Z,164.67
2024-03-26T01:01:23.008Z,163.67
2024-03-26T01:01:55.415Z,161.67
2024-03-26T01:02:26.256Z,158.00
2024-03-26T01:02:56.863Z,156.00
2024-03-26T01:03:28.741Z,157.33
2024-03-26T01:04:05.322Z,158.00
2024-03-26T01:04:36.332Z,159.00
2024-03-26T01:05:07.220Z,159.67
2024-03-26T01:05:38.939Z,160.00
2024-03-26T01:06:10.552Z,160.67
2024-03-26T01:06:41.257Z,161.00
2024-03-26T01:07:11.854Z,161.00
2024-03-26T01:07:42.506Z,161.00
2024-03-26T01:08:13.113Z,161.67
2024-03-26T01:08:45.185Z,162.00
2024-03-26T01:09:17.764Z,162.67
2024-03-26T01:09:48.469Z,163.67
2024-03-26T01:10:19.290Z,165.00
2024-03-26T01:10:49.998Z,167.00
2024-03-26T01:11:20.672Z,169.33
2024-03-26T01:11:51.258Z,171.33
2024-03-26T01:12:22.870Z,173.00
2024-03-26T01:12:53.466Z,174.33
2024-03-26T01:13:25.214Z,175.00
2024-03-26T01:13:58.482Z,175.00
2024-03-26T01:14:29.735Z,175.67
2024-03-26T01:15:00.438Z,176.00
2024-03-26T01:15:31.048Z,176.33
2024-03-26T01:16:04.519Z,177.33
2024-03-26T01:16:35.216Z,178.00
2024-03-26T01:17:07.816Z,178.67
2024-03-26T01:17:40.885Z,179.00
2024-03-26T01:18:11.798Z,179.00
2024-03-26T01:18:42.405Z,180.00
2024-03-26T01:19:13.014Z,183.67
2024-03-26T01:19:43.824Z,185.67
2024-03-26T01:20:16.184Z,186.00
2024-03-26T01:20:47.252Z,185.33
2024-03-26T01:21:20.467Z,185.00
2024-03-26T01:21:53.110Z,184.33
2024-03-26T01:22:24.687Z,184.00
2024-03-26T01:22:55.284Z,183.33
2024-03-26T01:23:25.905Z,183.00
2024-03-26T01:23:58.768Z,183.00
2024-03-26T01:24:30.479Z,183.33
2024-03-26T01:25:01.224Z,184.00
2024-03-26T01:25:35.218Z,184.00
2024-03-26T01:26:05.862Z,183.33
2024-03-26T01:26:37.108Z,183.00
2024-03-26T01:27:07.708Z,183.00
2024-03-26T01:27:38.298Z,183.33
2024-03-26T01:28:09.469Z,183.00
2024-03-26T01:28:41.942Z,182.67
2024-03-26T01:29:12.570Z,179.67
2024-03-26T01:29:44.448Z,173.00
2024-03-26T01:30:15.220Z,165.33
2024-03-26T01:30:46.836Z,159.67
2024-03-26T01:31:17.435Z,155.00
2024-03-26T01:31:48.467Z,149.33
2024-03-26T01:32:19.056Z,147.00
2024-03-26T01:32:49.878Z,146.00
2024-03-26T01:33:21.272Z,146.00
2024-03-26T01:33:51.870Z,150.67
2024-03-26T01:34:22.481Z,154.00
2024-03-26T01:34:54.284Z,155.00
2024-03-26T01:35:26.531Z,153.00
2024-03-26T01:35:57.150Z,148.33
2024-03-26T01:36:28.398Z,144.33
2024-03-26T01:36:59.008Z,141.67
2024-03-26T01:37:29.660Z,142.33
2024-03-26T01:38:01.266Z,144.00
2024-03-26T01:38:32.510Z,142.00
2024-03-26T01:39:03.241Z,140.33
2024-03-26T01:39:33.857Z,140.67
2024-03-26T01:40:06.138Z,141.00
2024-03-26T01:40:36.781Z,140.00
2024-03-26T01:41:07.407Z,139.67
2024-03-26T01:41:39.433Z,138.33
2024-03-26T01:42:10.106Z,136.00
2024-03-26T01:42:40.737Z,135.00
2024-03-26T01:43:11.584Z,135.00
2024-03-26T01:43:42.185Z,135.33
2024-03-26T01:44:12.791Z,136.00
2024-03-26T01:44:44.094Z,137.00
2024-03-26T01:45:14.704Z,137.33
2024-03-26T01:45:45.327Z,138.00
2024-03-26T01:46:15.980Z,138.67
2024-03-26T01:46:46.788Z,139.00
2024-03-26T01:47:17.617Z,139.33
2024-03-26T01:47:49.657Z,140.00
2024-03-26T01:48:23.021Z,140.00
2024-03-26T01:48:53.933Z,140.67
2024-03-26T01:49:25.954Z,141.00
2024-03-26T01:49:59.701Z,141.00
2024-03-26T01:50:40.619Z,142.00
2024-03-26T01:51:11.403Z,142.00
2024-03-26T01:51:43.960Z,143.00
2024-03-26T01:52:16.276Z,143.33
2024-03-26T01:52:47.954Z,144.00
2024-03-26T01:53:20.427Z,145.00
2024-03-26T01:53:52.528Z,145.67
2024-03-26T01:54:23.818Z,146.33
2024-03-26T01:54:57.334Z,147.00
2024-03-26T01:55:30.630Z,148.33
2024-03-26T01:56:02.850Z,150.00
2024-03-26T01:56:33.886Z,151.67
2024-03-26T01:57:05.693Z,152.00
2024-03-26T01:57:36.606Z,152.00
2024-03-26T01:58:07.300Z,152.00
2024-03-26T01:58:39.810Z,152.00
2024-03-26T01:59:11.935Z,152.33
2024-03-26T01:59:44.505Z,153.00
2024-03-26T02:00:17.801Z,153.00
2024-03-26T02:00:50.443Z,152.33
2024-03-26T02:01:22.729Z,150.67
2024-03-26T02:01:54.627Z,149.33
2024-03-26T02:02:25.248Z,147.67
2024-03-26T02:02:56.099Z,146.67
2024-03-26T02:03:26.748Z,146.00
2024-03-26T02:03:58.355Z,146.00
2024-03-26T02:04:30.278Z,146.00
2024-03-26T02:05:00.904Z,145.33
2024-03-26T02:05:31.664Z,145.00
2024-03-26T02:06:03.800Z,145.00
2024-03-26T02:06:34.504Z,145.00
2024-03-26T02:07:06.251Z,145.00
2024-03-26T02:07:38.926Z,145.00
2024-03-26T02:08:11.844Z,143.67
2024-03-26T02:08:42.977Z,143.00
2024-03-26T02:09:15.583Z,142.00
2024-03-26T02:09:47.346Z,142.00
2024-03-26T02:10:18.502Z,141.67
2024-03-26T02:10:50.493Z,142.00
2024-03-26T02:11:22.473Z,141.67
2024-03-26T02:11:53.657Z,141.00
2024-03-26T02:12:24.700Z,141.00
2024-03-26T02:12:55.296Z,140.00
2024-03-26T02:13:26.007Z,139.67
2024-03-26T02:13:56.661Z,138.67
2024-03-26T02:14:27.270Z,137.33
2024-03-26T02:14:58.219Z,135.33
2024-03-26T02:15:28.856Z,134.00
2024-03-26T02:16:00.156Z,134.00
2024-03-26T02:16:30.757Z,134.00
2024-03-26T02:17:03.724Z,134.00
2024-03-26T02:17:34.330Z,134.00
2024-03-26T02:18:05.134Z,134.00
2024-03-26T02:18:35.754Z,133.00
2024-03-26T02:19:07.189Z,133.00
2024-03-26T02:19:37.933Z,132.67
2024-03-26T02:20:10.256Z,131.67
2024-03-26T02:20:41.305Z,130.00
2024-03-26T02:21:11.922Z,130.00
2024-03-26T02:21:43.849Z,129.33
2024-03-26T02:22:15.481Z,129.00
2024-03-26T02:22:46.076Z,129.67
2024-03-26T02:23:22.034Z,129.00
2024-03-26T02:23:52.626Z,129.00
2024-03-26T02:24:25.302Z,129.00
2024-03-26T02:24:56.144Z,129.00
2024-03-26T02:25:28.305Z,129.00
2024-03-26T02:25:58.998Z,129.00
2024-03-26T02:26:29.607Z,129.00
2024-03-26T02:27:00.288Z,130.00
2024-03-26T02:27:31.326Z,130.00
2024-03-26T02:28:02.589Z,130.00
2024-03-26T02:28:33.219Z,130.00
2024-03-26T02:29:03.828Z,130.00
2024-03-26T02:29:34.431Z,130.00
2024-03-26T02:30:05.717Z,130.00
2024-03-26T02:30:36.987Z,130.00
2024-03-26T02:31:07.638Z,130.00
2024-03-26T02:31:38.258Z,131.00
2024-03-26T02:32:17.395Z,130.33
2024-03-26T02:32:48.031Z,130.00
2024-03-26T02:33:18.655Z,130.00
2024-03-26T02:33:49.321Z,129.00
2024-03-26T02:34:21.704Z,128.00
2024-03-26T02:34:52.295Z,127.33
2024-03-26T02:35:24.211Z,127.00
2024-03-26T02:35:56.238Z,127.00
2024-03-26T02:36:26.899Z,127.00
2024-03-26T02:36:57.607Z,127.00
2024-03-26T02:37:29.568Z,126.67
2024-03-26T02:38:01.870Z,125.00
2024-03-26T02:38:32.497Z,122.00
2024-03-26T02:39:03.659Z,120.33
2024-03-26T02:39:34.253Z,119.00
2024-03-26T02:40:05.260Z,119.33
2024-03-26T02:40:35.845Z,120.00
2024-03-26T02:41:06.841Z,120.00
2024-03-26T02:41:37.777Z,120.00
2024-03-26T02:42:08.914Z,119.33
2024-03-26T02:42:39.693Z,118.33
2024-03-26T02:43:10.365Z,118.00
2024-03-26T02:43:40.972Z,118.00
2024-03-26T02:44:11.952Z,118.00
2024-03-26T02:44:43.581Z,118.00
2024-03-26T02:45:14.486Z,118.00
2024-03-26T02:45:45.756Z,118.00
2024-03-26T02:46:16.788Z,118.67
2024-03-26T02:46:47.374Z,118.67
2024-03-26T02:47:17.968Z,118.00
2024-03-26T02:47:48.602Z,118.00
2024-03-26T02:48:19.224Z,118.00
2024-03-26T02:48:52.867Z,118.33
2024-03-26T02:49:23.464Z,119.00
2024-03-26T02:49:54.079Z,119.33
2024-03-26T02:50:24.652Z,120.33
2024-03-26T02:50:55.232Z,122.00
2024-03-26T02:51:25.859Z,123.67
2024-03-26T02:51:56.457Z,125.00
2024-03-26T02:52:27.084Z,126.33
2024-03-26T02:52:57.739Z,129.00
2024-03-26T02:53:28.376Z,132.00
2024-03-26T02:53:59.008Z,135.67
2024-03-26T02:54:30.279Z,139.00
2024-03-26T02:55:00.968Z,141.33
2024-03-26T02:55:31.592Z,143.67
2024-03-26T02:56:02.282Z,147.00
2024-03-26T02:56:32.876Z,152.00
2024-03-26T02:57:03.663Z,157.00
2024-03-26T02:57:34.289Z,161.33
2024-03-26T02:58:05.303Z,164.33
2024-03-26T02:58:36.043Z,166.33
2024-03-26T02:59:07.346Z,168.67
2024-03-26T02:59:37.972Z,170.00
2024-03-26T03:00:09.615Z,169.00
2024-03-26T03:00:41.820Z,166.33
2024-03-26T03:01:13.213Z,164.00
2024-03-26T03:01:44.788Z,162.00
2024-03-26T03:02:15.398Z,160.67
2024-03-26T03:02:47.381Z,160.00
2024-03-26T03:03:18.319Z,160.00
2024-03-26T03:03:49.055Z,160.00
2024-03-26T03:04:19.665Z,160.00
2024-03-26T03:04:50.322Z,159.33
2024-03-26T03:05:20.909Z,158.67
2024-03-26T03:05:51.526Z,158.00
2024-03-26T03:06:22.105Z,157.33
2024-03-26T03:06:52.717Z,157.00
2024-03-26T03:07:23.331Z,156.33
2024-03-26T03:07:53.985Z,156.00
2024-03-26T03:08:24.559Z,156.00
2024-03-26T03:08:55.136Z,156.00
2024-03-26T03:09:25.715Z,155.33
2024-03-26T03:09:56.320Z,155.00
2024-03-26T03:10:26.939Z,154.00
2024-03-26T03:10:57.577Z,153.33
2024-03-26T03:11:28.296Z,151.33
2024-03-26T03:11:58.890Z,149.67
2024-03-26T03:12:29.504Z,147.00
2024-03-26T03:13:00.207Z,145.33
2024-03-26T03:13:31.315Z,144.67
2024-03-26T03:14:01.910Z,145.00
2024-03-26T03:14:33.200Z,145.00
2024-03-26T03:15:04.058Z,145.00
2024-03-26T03:15:34.657Z,145.00
2024-03-26T03:16:05.431Z,144.33
2024-03-26T03:16:36.029Z,144.00
2024-03-26T03:17:06.605Z,143.00
2024-03-26T03:17:39.505Z,142.33
2024-03-26T03:18:11.151Z,142.00
2024-03-26T03:18:42.785Z,141.00
2024-03-26T03:19:13.378Z,141.00
2024-03-26T03:19:43.971Z,140.67
2024-03-26T03:20:14.638Z,140.00
2024-03-26T03:20:45.513Z,140.00
2024-03-26T03:21:16.123Z,140.00
2024-03-26T03:21:47.370Z,140.00
2024-03-26T03:22:18.052Z,140.00
2024-03-26T03:22:48.677Z,140.00
2024-03-26T03:23:19.432Z,140.00
2024-03-26T03:23:50.089Z,140.00
2024-03-26T03:24:20.680Z,140.00
2024-03-26T03:24:52.578Z,140.00
2024-03-26T03:25:23.152Z,140.00
2024-03-26T03:25:54.136Z,140.00
2024-03-26T03:26:25.361Z,140.00
2024-03-26T03:26:55.943Z,140.00
2024-03-26T03:27:26.535Z,139.33
2024-03-26T03:27:57.180Z,138.67
2024-03-26T03:28:29.061Z,138.00
2024-03-26T03:28:59.994Z,138.33
2024-03-26T03:29:30.603Z,139.00
2024-03-26T03:30:01.486Z,139.00
2024-03-26T03:30:32.094Z,140.33
2024-03-26T03:31:02.791Z,141.67
2024-03-26T03:31:33.382Z,143.33
2024-03-26T03:32:04.148Z,144.00
2024-03-26T03:32:34.722Z,144.00
2024-03-26T03:33:05.338Z,144.00
2024-03-26T03:33:35.966Z,144.00
2024-03-26T03:34:07.735Z,144.67
2024-03-26T03:34:39.074Z,145.00
2024-03-26T03:35:09.695Z,145.00
2024-03-26T03:35:41.666Z,145.00
2024-03-26T03:36:12.994Z,145.00
2024-03-26T03:36:43.634Z,145.00
2024-03-26T03:37:14.339Z,145.00
2024-03-26T03:37:45.473Z,145.00
2024-03-26T03:38:16.155Z,146.33
2024-03-26T03:38:46.777Z,147.00
2024-03-26T03:39:17.596Z,148.00
2024-03-26T03:39:48.255Z,148.67
2024-03-26T03:40:20.092Z,149.00
2024-03-26T03:40:50.750Z,149.00
2024-03-26T03:41:21.372Z,149.00
2024-03-26T03:41:51.982Z,149.00
2024-03-26T03:42:22.576Z,149.00
2024-03-26T03:42:53.202Z,149.33
2024-03-26T03:43:24.826Z,150.00
2024-03-26T03:43:55.436Z,150.00
2024-03-26T03:44:30.599Z,150.00
2024-03-26T03:45:01.399Z,149.33
2024-03-26T03:45:32.060Z,149.00
2024-03-26T03:46:04.159Z,149.00
2024-03-26T03:46:35.944Z,149.00
2024-03-26T03:47:08.000Z,149.00
2024-03-26T03:47:38.817Z,149.00
2024-03-26T03:48:10.520Z,149.00
2024-03-26T03:48:41.137Z,148.00
2024-03-26T03:49:12.729Z,148.00
2024-03-26T03:49:44.322Z,148.00
2024-03-26T03:50:15.152Z,147.33
2024-03-26T03:50:45.755Z,147.00
2024-03-26T03:51:16.482Z,147.00
2024-03-26T03:51:47.106Z,146.00
2024-03-26T03:52:18.866Z,146.00
2024-03-26T03:52:49.488Z,144.67
2024-03-26T03:53:20.094Z,142.33
2024-03-26T03:53:54.156Z,138.33
2024-03-26T03:54:25.087Z,135.67
2024-03-26T03:54:55.663Z,136.00
2024-03-26T03:55:26.243Z,136.00
2024-03-26T03:55:56.906Z,137.00
2024-03-26T03:56:27.509Z,137.00
2024-03-26T03:56:59.503Z,137.67
2024-03-26T03:57:30.474Z,138.33
2024-03-26T03:58:01.098Z,140.00
2024-03-26T03:58:31.704Z,141.67
2024-03-26T03:59:06.263Z,144.00
2024-03-26T03:59:38.734Z,146.67
2024-03-26T04:00:10.073Z,148.00
2024-03-26T04:00:42.023Z,148.00
2024-03-26T04:01:13.658Z,148.00
2024-03-26T04:01:45.465Z,147.33
2024-03-26T04:02:17.694Z,147.00
2024-03-26T04:02:48.327Z,147.00
2024-03-26T04:03:18.928Z,147.00
2024-03-26T04:03:51.719Z,151.00
2024-03-26T04:04:22.456Z,159.67
2024-03-26T04:04:53.043Z,163.00
2024-03-26T04:05:23.684Z,164.00
2024-03-26T04:05:54.315Z,164.33
2024-03-26T04:06:25.201Z,165.00
2024-03-26T04:06:55.802Z,164.33
2024-03-26T04:07:26.403Z,165.33
2024-03-26T04:07:56.975Z,166.67
2024-03-26T04:08:27.556Z,167.33
2024-03-26T04:08:59.586Z,166.33
2024-03-26T04:09:31.322Z,165.00
2024-03-26T04:10:02.834Z,165.33
2024-03-26T04:10:38.354Z,166.67
2024-03-26T04:11:08.966Z,168.00
2024-03-26T04:11:40.963Z,168.67
2024-03-26T04:12:13.355Z,169.00
2024-03-26T04:12:43.982Z,177.33
2024-03-26T04:13:14.584Z,208.33
2024-03-26T04:13:46.199Z,230.33
2024-03-26T04:14:17.862Z,225.33
2024-03-26T04:14:48.962Z,210.33
2024-03-26T04:15:19.586Z,200.00
2024-03-26T04:15:50.183Z,194.00
2024-03-26T04:16:20.787Z,190.00
2024-03-26T04:16:51.407Z,188.33
2024-03-26T04:17:23.503Z,186.00
2024-03-26T04:17:54.175Z,181.67
2024-03-26T04:18:24.870Z,177.00
2024-03-26T04:18:55.484Z,170.67
2024-03-26T04:19:26.715Z,164.00
2024-03-26T04:19:57.367Z,158.33
2024-03-26T04:20:28.396Z,155.33
2024-03-26T04:20:59.010Z,155.67
2024-03-26T04:21:29.608Z,156.67
2024-03-26T04:22:00.371Z,157.67
2024-03-26T04:22:31.163Z,158.00
2024-03-26T04:23:01.757Z,158.00
2024-03-26T04:23:33.508Z,158.33
2024-03-26T04:24:04.969Z,159.00
2024-03-26T04:24:35.618Z,159.33
2024-03-26T04:25:06.401Z,160.00
2024-03-26T04:25:37.002Z,160.00
2024-03-26T04:26:07.799Z,160.00
2024-03-26T04:26:38.867Z,160.33
2024-03-26T04:27:09.468Z,161.33
2024-03-26T04:27:40.130Z,165.00
2024-03-26T04:28:10.712Z,178.33
2024-03-26T04:28:41.825Z,210.33
2024-03-26T04:29:12.446Z,319.33
2024-03-26T04:29:43.048Z,333.67
2024-03-26T04:30:13.695Z,355.67
2024-03-26T04:30:45.300Z,379.00
2024-03-26T04:31:16.500Z,367.33
2024-03-26T04:31:47.118Z,333.00
2024-03-26T04:32:17.716Z,318.00
2024-03-26T04:32:52.554Z,301.33
2024-03-26T04:33:23.211Z,285.67
2024-03-26T04:33:54.126Z,275.33
2024-03-26T04:34:27.431Z,267.00
2024-03-26T04:35:01.524Z,260.67
2024-03-26T04:35:32.491Z,259.67
2024-03-26T04:36:03.344Z,258.00
2024-03-26T04:36:33.941Z,256.00
2024-03-26T04:37:04.573Z,255.00
2024-03-26T04:37:35.182Z,259.33
2024-03-26T04:38:05.796Z,279.67
2024-03-26T04:38:36.403Z,288.00
2024-03-26T04:39:09.318Z,276.67
2024-03-26T04:39:40.384Z,267.33
2024-03-26T04:40:11.337Z,264.67
2024-03-26T04:40:43.283Z,258.00
2024-03-26T04:41:14.087Z,247.67
2024-03-26T04:41:46.645Z,239.00
2024-03-26T04:42:17.253Z,231.33
2024-03-26T04:42:48.356Z,228.67
2024-03-26T04:43:18.961Z,229.00
2024-03-26T04:43:49.562Z,229.00
2024-03-26T04:44:20.418Z,229.00
2024-03-26T04:44:51.052Z,229.67
2024-03-26T04:45:21.677Z,284.00
2024-03-26T04:45:53.808Z,310.67
2024-03-26T04:46:24.461Z,283.00
2024-03-26T04:46:55.470Z,268.67
2024-03-26T04:47:28.002Z,265.00
2024-03-26T04:47:58.622Z,257.67
2024-03-26T04:48:29.248Z,244.33
2024-03-26T04:49:01.024Z,234.00
2024-03-26T04:49:31.999Z,224.67
2024-03-26T04:50:02.742Z,218.33
2024-03-26T04:50:35.216Z,215.33
2024-03-26T04:51:05.842Z,216.67
2024-03-26T04:51:36.825Z,214.67
2024-03-26T04:52:07.433Z,212.00
2024-03-26T04:52:38.042Z,211.00
2024-03-26T04:53:08.631Z,209.67
2024-03-26T04:53:39.285Z,208.67
2024-03-26T04:54:10.356Z,204.00
2024-03-26T04:54:42.010Z,199.33
2024-03-26T04:55:13.290Z,197.33
2024-03-26T04:55:44.052Z,196.00
2024-03-26T04:56:15.956Z,191.67
2024-03-26T04:56:47.776Z,183.67
2024-03-26T04:57:22.157Z,183.33
2024-03-26T04:57:58.695Z,182.00
2024-03-26T04:58:29.957Z,179.00
2024-03-26T04:59:00.576Z,177.00
2024-03-26T04:59:31.175Z,175.00
2024-03-26T05:00:01.805Z,180.33
2024-03-26T05:00:32.445Z,190.33
2024-03-26T05:01:04.646Z,190.00
2024-03-26T05:01:35.893Z,184.00
2024-03-26T05:02:07.825Z,173.33
2024-03-26T05:02:38.852Z,171.00
2024-03-26T05:03:11.336Z,173.33
2024-03-26T05:03:41.942Z,173.67
2024-03-26T05:04:15.708Z,176.00
2024-03-26T05:04:49.410Z,177.00
2024-03-26T05:05:21.023Z,176.67
2024-03-26T05:05:52.188Z,176.00
2024-03-26T05:06:22.838Z,176.33
2024-03-26T05:06:54.489Z,176.33
2024-03-26T05:07:30.657Z,177.33
2024-03-26T05:08:01.277Z,178.67
2024-03-26T05:08:31.880Z,181.00
2024-03-26T05:09:04.632Z,221.67
2024-03-26T05:09:36.242Z,281.33
2024-03-26T05:10:10.503Z,296.33
2024-03-26T05:10:42.720Z,309.00
2024-03-26T05:11:18.426Z,310.00
2024-03-26T05:11:50.200Z,305.00
2024-03-26T05:12:20.799Z,291.67
2024-03-26T05:12:51.394Z,295.00
2024-03-26T05:13:22.015Z,329.00
2024-03-26T05:13:52.654Z,335.00
2024-03-26T05:14:23.302Z,320.67
2024-03-26T05:14:54.033Z,306.00
2024-03-26T05:15:27.198Z,280.67
2024-03-26T05:16:06.497Z,268.00
2024-03-26T05:16:37.300Z,258.00
2024-03-26T05:17:07.979Z,249.00
2024-03-26T05:17:38.607Z,239.00
2024-03-26T05:18:09.862Z,230.00
2024-03-26T05:18:40.522Z,220.33
2024-03-26T05:19:11.127Z,210.67
2024-03-26T05:19:42.383Z,208.00
2024-03-26T05:20:13.903Z,202.33
2024-03-26T05:20:44.555Z,198.67
2024-03-26T05:21:15.692Z,196.00
2024-03-26T05:21:46.360Z,195.00
2024-03-26T05:22:17.981Z,195.33
2024-03-26T05:22:49.046Z,195.00
2024-03-26T05:23:20.037Z,196.00
2024-03-26T05:23:50.635Z,193.00
2024-03-26T05:24:22.468Z,194.67
2024-03-26T05:24:55.838Z,198.33
2024-03-26T05:25:28.036Z,208.33
2024-03-26T05:26:00.632Z,224.67
2024-03-26T05:26:31.237Z,234.33
2024-03-26T05:27:01.852Z,247.67
2024-03-26T05:27:33.153Z,240.67
2024-03-26T05:28:03.969Z,237.33
2024-03-26T05:28:36.131Z,239.00
2024-03-26T05:29:07.797Z,236.33
2024-03-26T05:29:38.419Z,232.67
2024-03-26T05:30:09.301Z,232.00
2024-03-26T05:30:40.002Z,226.33
2024-03-26T05:31:17.815Z,204.33
2024-03-26T05:31:48.443Z,185.67
2024-03-26T05:32:20.074Z,177.00
2024-03-26T05:32:52.202Z,170.67
2024-03-26T05:33:22.847Z,170.00
2024-03-26T05:33:53.430Z,169.00
2024-03-26T05:34:25.338Z,166.00
2024-03-26T05:34:56.699Z,162.00
2024-03-26T05:35:33.919Z,158.00
2024-03-26T05:36:04.787Z,156.00
2024-03-26T05:36:35.399Z,155.67
2024-03-26T05:37:07.620Z,156.00
2024-03-26T05:37:38.263Z,157.33
2024-03-26T05:38:09.973Z,160.33
2024-03-26T05:38:41.253Z,167.00
2024-03-26T05:39:12.016Z,172.67
2024-03-26T05:39:44.026Z,174.00
2024-03-26T05:40:15.252Z,174.33
2024-03-26T05:40:46.541Z,173.67
2024-03-26T05:41:18.137Z,172.00
2024-03-26T05:41:50.486Z,173.33
2024-03-26T05:42:31.553Z,175.00
2024-03-26T05:43:03.212Z,176.00
2024-03-26T05:43:34.212Z,176.00
2024-03-26T05:44:06.164Z,176.00
2024-03-26T05:44:37.521Z,176.00
2024-03-26T05:45:08.611Z,176.67
2024-03-26T05:45:39.678Z,177.33
2024-03-26T05:46:10.304Z,179.00
2024-03-26T05:46:41.683Z,183.33
2024-03-26T05:47:13.215Z,192.00
2024-03-26T05:47:43.817Z,205.00
2024-03-26T05:48:16.313Z,229.33
2024-03-26T05:48:46.929Z,257.33
2024-03-26T05:49:17.534Z,259.67
2024-03-26T05:49:48.401Z,251.67
2024-03-26T05:50:20.471Z,244.67
2024-03-26T05:50:54.257Z,234.33
2024-03-26T05:51:24.864Z,225.67
2024-03-26T05:51:57.013Z,220.67
2024-03-26T05:52:28.422Z,219.00
2024-03-26T05:53:01.013Z,218.00
2024-03-26T05:53:32.264Z,217.33
2024-03-26T05:54:03.950Z,219.00
2024-03-26T05:54:35.648Z,219.33
2024-03-26T05:55:06.436Z,218.00
2024-03-26T05:55:37.056Z,217.00
2024-03-26T05:56:12.370Z,215.00
2024-03-26T05:56:45.846Z,212.00
2024-03-26T05:57:16.925Z,209.00
2024-03-26T05:57:48.997Z,205.33
2024-03-26T05:58:19.611Z,196.33
2024-03-26T05:58:53.747Z,192.33
2024-03-26T05:59:24.356Z,193.00
2024-03-26T05:59:55.034Z,193.00
2024-03-26T06:00:25.605Z,194.00
2024-03-26T06:00:56.416Z,194.00
2024-03-26T06:01:27.196Z,193.33
2024-03-26T06:01:57.774Z,192.00
2024-03-26T06:02:28.377Z,192.00
2024-03-26T06:02:58.948Z,191.33
2024-03-26T06:03:29.646Z,190.00
2024-03-26T06:04:02.727Z,188.33
2024-03-26T06:04:33.503Z,187.00
2024-03-26T06:05:05.253Z,186.00
2024-03-26T06:05:35.824Z,190.00
2024-03-26T06:06:06.419Z,200.67
2024-03-26T06:06:37.040Z,203.00
2024-03-26T06:07:07.819Z,203.00
2024-03-26T06:07:38.411Z,201.67
2024-03-26T06:08:09.105Z,197.67
2024-03-26T06:08:39.970Z,189.00
2024-03-26T06:09:10.577Z,184.33
2024-03-26T06:09:41.158Z,182.67
2024-03-26T06:10:11.758Z,177.00
2024-03-26T06:10:42.367Z,171.33
2024-03-26T06:11:12.963Z,171.33
2024-03-26T06:11:43.578Z,175.33
2024-03-26T06:12:14.180Z,176.00
2024-03-26T06:12:44.761Z,174.00
2024-03-26T06:13:15.376Z,170.00
2024-03-26T06:13:45.978Z,167.67
2024-03-26T06:14:16.633Z,165.00
2024-03-26T06:14:47.268Z,162.67
2024-03-26T06:15:17.857Z,158.33
2024-03-26T06:15:48.467Z,156.00
2024-03-26T06:16:19.537Z,156.67
2024-03-26T06:16:50.644Z,156.00
2024-03-26T06:17:21.208Z,157.33
2024-03-26T06:17:51.812Z,161.67
2024-03-26T06:18:24.407Z,165.67
2024-03-26T06:18:56.428Z,171.67
2024-03-26T06:19:27.064Z,182.33
2024-03-26T06:19:57.652Z,192.33
2024-03-26T06:20:28.257Z,193.00
2024-03-26T06:20:58.893Z,190.67
2024-03-26T06:21:29.609Z,189.00
2024-03-26T06:22:02.148Z,186.00
2024-03-26T06:22:32.771Z,184.33
2024-03-26T06:23:03.495Z,184.00
2024-03-26T06:23:34.123Z,182.67
2024-03-26T06:24:04.868Z,178.67
2024-03-26T06:24:35.859Z,170.67
2024-03-26T06:25:06.653Z,162.33
2024-03-26T06:25:37.249Z,157.67
2024-03-26T06:26:08.290Z,155.33
2024-03-26T06:26:38.903Z,155.67
2024-03-26T06:27:12.118Z,157.00
2024-03-26T06:27:44.983Z,155.33
2024-03-26T06:28:15.583Z,154.00
2024-03-26T06:28:46.198Z,155.00
2024-03-26T06:29:16.814Z,156.67
2024-03-26T06:29:48.924Z,157.67
2024-03-26T06:30:19.530Z,163.67
2024-03-26T06:30:50.336Z,174.33
2024-03-26T06:31:20.935Z,180.00